Panoche, California
Current Conditions -  °F | °C
As of 6:53 AM on Wednesday 26 Nov 2014 (Local Time) from KSNS Reporting Station
Clear Clear  
Wind Chill: 53°   Ceiling: Unl
Heat Index: 53°   Visibility: 10mi
Dew Point: 36°   Wind: 12mph
Humidity: 52%   Direction: 90°E
Pressure: 30.27"   Gusts: NA
Location:  36.4824°N, 120.948°W
Report Text: KSNS 261453Z 09010KT 10SM CLR 12/02 A3027 RMK AO2 SLP259 T01170022 50001
Loading
Personal Weather Stations






























Interactive Weather Map New forecast layout! Learn more

10-Day Weather Forecast

Advertisements
Track Severe Weather on mobile